Time;durP1;ratioP1;P1;durP2;ratioP2;P2;SDS_P1;SDS_P2;PMS_P1;PMS_P2;Temp;Humidity;BMP_temperature;BMP_pressure;BME280_temperature;BME280_humidity;BME280_pressure;Samples;Min_cycle;Max_cycle;Signal;HPM_P1;HPM_P2
2023/02/10 00:00:47;;;;;;;1.97;1.80;;;19.90;54.10;;;;;;6217807;23;20715;-83
2023/02/10 00:03:14;;;;;;;2.67;2.47;;;19.90;54.10;;;;;;6217616;23;20489;-92
2023/02/10 00:05:40;;;;;;;1.97;1.87;;;19.90;54.00;;;;;;6217165;23;20433;-83
2023/02/10 00:08:07;;;;;;;2.37;2.17;;;19.90;54.10;;;;;;6217438;23;20398;-83
2023/02/10 00:10:35;;;;;;;5.90;2.50;;;19.90;54.10;;;;;;6217363;23;20453;-83
2023/02/10 00:13:02;;;;;;;3.10;2.83;;;19.90;54.10;;;;;;6217599;23;20402;-83
2023/02/10 00:15:29;;;;;;;5.67;2.47;;;20.10;54.20;;;;;;6217602;23;20433;-83
2023/02/10 00:17:55;;;;;;;2.30;2.10;;;19.90;54.10;;;;;;6217608;23;20428;-83
2023/02/10 00:20:22;;;;;;;2.60;2.40;;;19.90;54.10;;;;;;6217379;23;20492;-83
2023/02/10 00:22:49;;;;;;;2.00;1.90;;;19.90;54.10;;;;;;6217570;23;20568;-83
2023/02/10 00:25:16;;;;;;;3.40;3.10;;;19.90;54.10;;;;;;6217485;23;20416;-83
2023/02/10 00:27:44;;;;;;;2.47;2.27;;;19.80;54.00;;;;;;6217369;23;20425;-90
2023/02/10 00:30:12;;;;;;;1.77;1.67;;;20.00;54.20;;;;;;6217565;23;20450;-83
2023/02/10 00:32:40;;;;;;;1.97;1.77;;;19.80;54.00;;;;;;6217521;23;20401;-83
2023/02/10 00:35:07;;;;;;;2.07;1.97;;;19.90;54.10;;;;;;6216635;23;20408;-83
2023/02/10 00:37:34;;;;;;;1.80;1.70;;;19.80;54.10;;;;;;6217473;23;20462;-83
2023/02/10 00:40:01;;;;;;;2.50;2.30;;;19.80;54.10;;;;;;6216962;23;20435;-83
2023/02/10 00:42:28;;;;;;;2.47;2.27;;;19.80;54.10;;;;;;6217407;23;20409;-83
2023/02/10 00:44:57;;;;;;;2.40;2.20;;;19.80;54.10;;;;;;6218191;23;20401;-83
2023/02/10 00:47:25;;;;;;;2.20;2.00;;;19.80;54.10;;;;;;6217037;23;20404;-83
2023/02/10 00:49:52;;;;;;;3.20;2.30;;;19.80;54.10;;;;;;6216957;23;20452;-83
2023/02/10 00:52:19;;;;;;;2.40;2.20;;;19.80;54.10;;;;;;6217235;23;20408;-81
2023/02/10 00:54:46;;;;;;;2.10;1.97;;;19.80;54.10;;;;;;6216891;23;20402;-82
2023/02/10 00:57:13;;;;;;;2.20;2.00;;;19.80;54.10;;;;;;6217843;23;20484;-83
2023/02/10 00:59:39;;;;;;;2.90;2.37;;;19.80;54.10;;;;;;6216919;23;20406;-92
2023/02/10 01:02:07;;;;;;;2.23;2.03;;;19.80;54.10;;;;;;6217464;23;20409;-83
2023/02/10 01:04:34;;;;;;;2.37;2.17;;;19.80;54.10;;;;;;6216791;23;20413;-83
2023/02/10 01:07:01;;;;;;;1.97;1.77;;;19.80;54.10;;;;;;6217139;23;20401;-83
2023/02/10 01:09:28;;;;;;;2.40;2.17;;;19.80;54.10;;;;;;6216823;23;20441;-83
2023/02/10 01:11:55;;;;;;;2.20;2.00;;;19.80;54.10;;;;;;6217077;23;20406;-83
2023/02/10 01:14:21;;;;;;;2.43;2.23;;;19.80;54.10;;;;;;6216800;23;20408;-83
2023/02/10 01:16:48;;;;;;;1.60;1.50;;;19.80;54.10;;;;;;6216788;23;20499;-91
2023/02/10 01:19:19;;;;;;;2.30;2.10;;;19.80;54.10;;;;;;6216548;23;20407;-82
2023/02/10 01:21:45;;;;;;;2.30;2.10;;;19.80;54.10;;;;;;6216719;23;20387;-83
2023/02/10 01:24:12;;;;;;;2.40;2.20;;;19.70;54.00;;;;;;6216988;23;20408;-84
2023/02/10 01:26:39;;;;;;;2.30;2.10;;;19.70;54.10;;;;;;6217195;23;20406;-83
2023/02/10 01:29:06;;;;;;;2.73;2.53;;;19.70;54.10;;;;;;6217143;23;20761;-83
2023/02/10 01:31:32;;;;;;;2.77;2.57;;;19.70;54.00;;;;;;6217829;23;20402;-84
2023/02/10 01:33:59;;;;;;;2.37;2.17;;;19.70;54.10;;;;;;6217451;23;20496;-83
2023/02/10 01:36:27;;;;;;;2.67;2.00;;;19.70;54.00;;;;;;6217237;23;20412;-84
2023/02/10 01:38:54;;;;;;;2.13;1.90;;;19.70;54.00;;;;;;6216795;23;20937;-83
2023/02/10 01:41:23;;;;;;;2.20;2.10;;;19.70;54.10;;;;;;6217638;23;20509;-83
2023/02/10 01:44:01;;;;;;;2.20;1.90;;;19.70;54.10;;;;;;6222932;23;20394;-79
2023/02/10 01:46:29;;;;;;;2.80;2.47;;;19.70;54.10;;;;;;6221613;23;20402;-84
2023/02/10 01:48:58;;;;;;;2.07;1.87;;;19.70;54.10;;;;;;6217463;23;20398;-83
2023/02/10 01:51:31;;;;;;;2.17;2.07;;;19.70;54.10;;;;;;6216559;23;20399;-94
2023/02/10 01:53:58;;;;;;;2.87;2.27;;;19.70;54.10;;;;;;6216648;23;20393;-84
2023/02/10 01:56:25;;;;;;;2.87;2.30;;;19.70;54.10;;;;;;6218440;23;20382;-84
2023/02/10 01:58:52;;;;;;;2.37;2.17;;;19.70;54.10;;;;;;6218141;23;20409;-84
2023/02/10 02:01:22;;;;;;;2.63;2.43;;;19.70;54.10;;;;;;6220432;23;20881;-84
2023/02/10 02:03:49;;;;;;;2.50;2.30;;;19.70;54.10;;;;;;6218157;23;20405;-83
2023/02/10 02:06:16;;;;;;;1.90;1.80;;;19.70;54.10;;;;;;6218460;23;20409;-83
2023/02/10 02:08:44;;;;;;;1.97;1.80;;;19.70;54.10;;;;;;6217865;23;20405;-93
2023/02/10 02:11:21;;;;;;;2.50;2.30;;;19.70;54.00;;;;;;6216789;23;20455;-83
2023/02/10 02:14:03;;;;;;;2.07;1.90;;;19.70;54.10;;;;;;6216807;23;20386;-83
2023/02/10 02:16:42;;;;;;;2.70;2.50;;;19.70;54.10;;;;;;6217683;23;20401;-83
2023/02/10 02:19:27;;;;;;;1.93;1.70;;;19.70;54.10;;;;;;6216573;23;20392;-83
2023/02/10 02:22:33;;;;;;;1.80;1.70;;;19.70;54.10;;;;;;6216289;23;20943;-82
2023/02/10 02:25:19;;;;;;;2.03;1.93;;;19.70;54.10;;;;;;6216943;23;20390;-83
2023/02/10 02:28:00;;;;;;;3.40;2.23;;;19.70;54.10;;;;;;6216515;23;20397;-84
2023/02/10 02:30:44;;;;;;;2.30;2.10;;;19.70;54.10;;;;;;6216717;23;20437;-83
2023/02/10 02:33:16;;;;;;;1.90;1.80;;;19.70;54.10;;;;;;6216519;23;20482;-83
2023/02/10 02:35:47;;;;;;;2.07;1.97;;;19.70;54.10;;;;;;6216466;23;20404;-93
2023/02/10 02:38:14;;;;;;;2.40;2.20;;;19.60;54.10;;;;;;6216931;23;20920;-83
2023/02/10 02:40:40;;;;;;;2.27;2.00;;;19.60;54.10;;;;;;6216418;23;20397;-83
2023/02/10 02:43:07;;;;;;;2.87;2.67;;;19.60;54.10;;;;;;6216509;23;20406;-84
2023/02/10 02:45:43;;;;;;;2.43;2.23;;;19.60;54.10;;;;;;6216259;23;20406;-83
2023/02/10 02:48:26;;;;;;;2.53;2.33;;;19.60;54.10;;;;;;6216031;23;20489;-84
2023/02/10 02:51:00;;;;;;;2.50;2.20;;;19.60;54.10;;;;;;6216200;23;20434;-83
2023/02/10 02:53:34;;;;;;;2.40;2.20;;;19.60;54.10;;;;;;6216319;23;20382;-94
2023/02/10 02:56:11;;;;;;;2.60;2.40;;;19.60;54.00;;;;;;6215940;23;20388;-92
2023/02/10 02:58:49;;;;;;;2.40;2.20;;;19.60;54.10;;;;;;6216235;23;20393;-83
2023/02/10 03:01:24;;;;;;;1.90;1.80;;;19.60;54.10;;;;;;6215996;23;20397;-83
2023/02/10 03:03:54;;;;;;;2.10;1.77;;;19.80;54.20;;;;;;6216006;23;20476;-84
2023/02/10 03:06:21;;;;;;;1.87;1.77;;;19.60;54.10;;;;;;6216390;23;20492;-84
2023/02/10 03:08:48;;;;;;;2.30;2.10;;;19.60;54.10;;;;;;6216219;23;20409;-84
2023/02/10 03:11:14;;;;;;;2.27;2.07;;;19.60;54.10;;;;;;6215588;23;20456;-84
2023/02/10 03:13:41;;;;;;;2.33;2.13;;;19.60;54.10;;;;;;6216055;23;20794;-84
2023/02/10 03:16:08;;;;;;;2.03;1.93;;;19.60;54.10;;;;;;6216171;23;20410;-84
2023/02/10 03:18:35;;;;;;;2.07;1.87;;;19.60;54.10;;;;;;6216670;23;20405;-84
2023/02/10 03:21:03;;;;;;;2.40;2.20;;;19.60;54.10;;;;;;6216058;23;20470;-83
2023/02/10 03:23:30;;;;;;;1.90;1.80;;;19.60;54.10;;;;;;6215967;23;20402;-84
2023/02/10 03:25:59;;;;;;;2.67;2.47;;;19.60;54.10;;;;;;6215925;23;20492;-84
2023/02/10 03:28:26;;;;;;;2.30;2.10;;;19.60;54.10;;;;;;6216174;23;20757;-84
2023/02/10 03:30:53;;;;;;;2.30;2.00;;;19.60;54.10;;;;;;6215830;23;20445;-84
2023/02/10 03:33:20;;;;;;;2.13;2.03;;;19.60;54.10;;;;;;6215997;23;20406;-84
2023/02/10 03:35:47;;;;;;;1.90;1.80;;;19.60;54.60;;;;;;6216070;23;20424;-84
2023/02/10 03:38:16;;;;;;;1.90;1.80;;;19.60;54.10;;;;;;6216753;23;20465;-84
2023/02/10 03:40:43;;;;;;;2.70;2.50;;;19.60;54.10;;;;;;6217704;23;20401;-83
2023/02/10 03:43:10;;;;;;;1.87;1.77;;;19.50;54.00;;;;;;6217726;23;20398;-84
2023/02/10 03:45:39;;;;;;;1.90;1.80;;;19.50;54.00;;;;;;6217321;23;20481;-84
2023/02/10 03:48:06;;;;;;;1.90;1.80;;;19.60;54.10;;;;;;6217261;23;20489;-85
2023/02/10 03:50:32;;;;;;;2.27;2.17;;;19.60;54.10;;;;;;6217515;23;20449;-84
2023/02/10 03:52:59;;;;;;;2.50;2.30;;;19.60;54.10;;;;;;6217633;23;20409;-84
2023/02/10 03:55:28;;;;;;;2.37;2.17;;;19.60;54.10;;;;;;6218237;23;20406;-83
2023/02/10 03:57:54;;;;;;;2.70;2.50;;;19.60;54.10;;;;;;6217154;23;20406;-84
2023/02/10 04:00:21;;;;;;;1.93;1.83;;;19.50;54.00;;;;;;6217444;23;20405;-84
2023/02/10 04:02:48;;;;;;;1.80;1.70;;;19.50;54.00;;;;;;6217141;23;20417;-83
2023/02/10 04:05:15;;;;;;;2.30;2.10;;;19.50;54.00;;;;;;6217516;23;20424;-84
2023/02/10 04:07:42;;;;;;;2.27;2.13;;;19.50;54.00;;;;;;6218111;23;20481;-84
2023/02/10 04:10:09;;;;;;;2.20;2.10;;;19.50;54.00;;;;;;6217239;23;20434;-84
2023/02/10 04:12:38;;;;;;;2.27;2.07;;;19.50;54.00;;;;;;6216975;23;20922;-84
2023/02/10 04:15:06;;;;;;;2.13;1.93;;;19.50;54.00;;;;;;6217601;23;20411;-84
2023/02/10 04:17:33;;;;;;;3.07;2.80;;;19.50;54.00;;;;;;6216988;23;20410;-89
2023/02/10 04:20:00;;;;;;;2.07;1.97;;;19.50;54.00;;;;;;6218396;23;20406;-83
2023/02/10 04:22:27;;;;;;;2.23;2.03;;;19.50;54.00;;;;;;6217391;23;20406;-84
2023/02/10 04:24:54;;;;;;;1.83;1.70;;;19.50;54.00;;;;;;6216934;23;20498;-83
2023/02/10 04:27:20;;;;;;;2.40;2.20;;;19.60;54.10;;;;;;6217923;23;20402;-84
2023/02/10 04:29:49;;;;;;;2.10;2.00;;;19.50;54.10;;;;;;6217188;23;20398;-84
2023/02/10 04:32:15;;;;;;;2.73;2.40;;;19.50;54.00;;;;;;6217933;23;20713;-84
2023/02/10 04:34:42;;;;;;;2.40;2.20;;;19.50;54.00;;;;;;6217261;23;20496;-84
2023/02/10 04:37:09;;;;;;;2.30;2.10;;;19.50;54.00;;;;;;6217187;23;20402;-84
2023/02/10 04:39:36;;;;;;;3.10;2.90;;;19.70;54.20;;;;;;6216943;23;20456;-83
2023/02/10 04:42:03;;;;;;;2.20;2.10;;;19.50;54.00;;;;;;6217115;23;20412;-84
2023/02/10 04:44:30;;;;;;;2.50;2.30;;;19.50;54.10;;;;;;6217174;23;20410;-84
2023/02/10 04:46:58;;;;;;;2.30;2.10;;;19.50;54.10;;;;;;6216784;23;20402;-93
2023/02/10 04:49:25;;;;;;;1.83;1.73;;;19.50;54.00;;;;;;6216599;23;20398;-84
2023/02/10 04:51:52;;;;;;;2.73;2.50;;;19.50;54.10;;;;;;6216987;23;20781;-84
2023/02/10 04:54:18;;;;;;;2.00;1.90;;;19.40;54.00;;;;;;6217033;23;20409;-84
2023/02/10 04:56:45;;;;;;;2.47;2.27;;;19.40;54.00;;;;;;6216994;23;20402;-84
2023/02/10 04:59:13;;;;;;;2.20;2.07;;;19.40;54.00;;;;;;6216583;23;20409;-93
2023/02/10 05:01:40;;;;;;;2.43;2.23;;;19.60;54.10;;;;;;6216957;23;20739;-84
2023/02/10 05:04:08;;;;;;;2.63;2.43;;;19.40;54.00;;;;;;6217246;23;20402;-94
2023/02/10 05:06:35;;;;;;;2.40;2.20;;;19.40;54.00;;;;;;6216519;23;20401;-84
2023/02/10 05:09:02;;;;;;;2.20;2.00;;;19.40;54.00;;;;;;6216419;23;20405;-93
2023/02/10 05:11:29;;;;;;;2.23;2.03;;;19.50;54.10;;;;;;6216402;23;20444;-84
2023/02/10 05:13:55;;;;;;;2.77;2.57;;;19.40;54.00;;;;;;6216912;23;20411;-83
2023/02/10 05:16:22;;;;;;;3.03;2.30;;;19.40;54.10;;;;;;6216844;23;20409;-84
2023/02/10 05:18:49;;;;;;;2.50;2.30;;;19.40;54.10;;;;;;6216815;23;20406;-85
2023/02/10 05:21:17;;;;;;;2.10;2.00;;;19.40;54.00;;;;;;6216821;23;20408;-83
2023/02/10 05:23:44;;;;;;;2.20;2.00;;;19.50;54.10;;;;;;6216796;23;20420;-84
2023/02/10 05:26:11;;;;;;;3.93;2.67;;;19.40;54.00;;;;;;6216778;23;20405;-93
2023/02/10 05:28:37;;;;;;;3.30;2.60;;;19.40;54.00;;;;;;6216739;23;20407;-84
2023/02/10 05:31:06;;;;;;;2.50;2.30;;;19.40;54.00;;;;;;6216585;23;20448;-83
2023/02/10 05:33:34;;;;;;;2.27;2.07;;;19.40;54.00;;;;;;6217661;23;20417;-83
2023/02/10 05:36:00;;;;;;;2.87;2.67;;;19.40;54.10;;;;;;6216639;23;20406;-83
2023/02/10 05:38:29;;;;;;;3.50;2.00;;;19.40;54.10;;;;;;6216295;23;20439;-83
2023/02/10 05:40:55;;;;;;;2.70;2.50;;;19.40;54.00;;;;;;6216625;23;20411;-83
2023/02/10 05:43:22;;;;;;;2.47;2.27;;;19.40;54.00;;;;;;6216518;23;20491;-83
2023/02/10 05:45:49;;;;;;;2.50;2.30;;;19.40;54.10;;;;;;6216605;23;20405;-83
2023/02/10 05:48:16;;;;;;;2.20;2.07;;;19.40;54.10;;;;;;6216510;23;20401;-83
2023/02/10 05:50:43;;;;;;;5.17;2.37;;;19.40;54.20;;;;;;6216071;23;21028;-84
2023/02/10 05:53:09;;;;;;;2.50;2.30;;;19.40;54.10;;;;;;6216425;23;20405;-84
2023/02/10 05:55:37;;;;;;;2.70;2.50;;;19.40;54.20;;;;;;6216481;23;20398;-83
2023/02/10 05:58:04;;;;;;;2.40;2.20;;;19.40;54.30;;;;;;6216533;23;20406;-83
2023/02/10 06:00:31;;;;;;;2.03;1.90;;;19.40;54.40;;;;;;6215921;23;20920;-83
2023/02/10 06:02:58;;;;;;;2.73;2.53;;;19.40;54.40;;;;;;6216631;23;20398;-83
2023/02/10 06:05:25;;;;;;;2.60;2.40;;;19.40;54.50;;;;;;6217038;23;20408;-83
2023/02/10 06:07:54;;;;;;;2.37;2.17;;;19.40;54.50;;;;;;6216379;23;20800;-83
2023/02/10 06:10:21;;;;;;;2.10;1.90;;;19.30;54.50;;;;;;6216265;23;20452;-83
2023/02/10 06:12:49;;;;;;;7.27;2.53;;;19.40;54.50;;;;;;6216344;23;20412;-83
2023/02/10 06:15:16;;;;;;;2.63;2.43;;;19.50;54.70;;;;;;6216632;23;20406;-83
2023/02/10 06:17:44;;;;;;;2.53;2.33;;;19.30;54.50;;;;;;6216351;23;20492;-83
2023/02/10 06:20:11;;;;;;;3.00;2.10;;;19.30;54.50;;;;;;6215775;23;20904;-83
2023/02/10 06:22:38;;;;;;;2.70;2.50;;;19.30;54.50;;;;;;6216369;23;20427;-83
2023/02/10 06:25:05;;;;;;;2.00;1.90;;;19.30;54.50;;;;;;6216326;23;20873;-83
2023/02/10 06:27:32;;;;;;;2.43;2.23;;;19.30;54.40;;;;;;6216088;23;20401;-84
2023/02/10 06:30:00;;;;;;;2.37;2.20;;;19.30;54.50;;;;;;6216314;23;20401;-83
2023/02/10 06:32:27;;;;;;;2.27;2.07;;;19.30;54.40;;;;;;6216242;23;20445;-83
2023/02/10 06:34:53;;;;;;;2.07;1.97;;;19.30;54.50;;;;;;6216892;23;20406;-84
2023/02/10 06:37:20;;;;;;;3.90;3.37;;;19.30;54.50;;;;;;6216202;23;20409;-83
2023/02/10 06:39:47;;;;;;;3.43;3.20;;;19.30;54.60;;;;;;6215806;23;21019;-84
2023/02/10 06:42:14;;;;;;;2.90;2.70;;;19.30;54.70;;;;;;6216237;23;20716;-83
2023/02/10 06:44:40;;;;;;;3.60;2.73;;;19.30;54.70;;;;;;6216071;23;20722;-89
2023/02/10 06:47:08;;;;;;;3.60;2.90;;;19.30;54.80;;;;;;6217223;23;20405;-84
2023/02/10 06:49:35;;;;;;;2.70;2.50;;;19.30;54.80;;;;;;6216082;23;20401;-84
2023/02/10 06:52:03;;;;;;;2.90;2.70;;;19.30;54.80;;;;;;6216069;23;20450;-84
2023/02/10 06:54:30;;;;;;;2.80;2.60;;;19.30;54.80;;;;;;6215800;23;20465;-84
2023/02/10 06:56:57;;;;;;;3.70;2.73;;;19.30;54.80;;;;;;6215789;23;20433;-83
2023/02/10 06:59:23;;;;;;;2.83;2.43;;;19.30;54.80;;;;;;6216138;23;20723;-84
2023/02/10 07:01:50;;;;;;;2.53;2.33;;;19.30;54.80;;;;;;6216152;23;20405;-84
2023/02/10 07:04:18;;;;;;;2.53;2.33;;;19.30;54.80;;;;;;6216108;23;20402;-83
2023/02/10 07:06:45;;;;;;;2.97;2.50;;;19.30;54.90;;;;;;6216117;23;20402;-84
2023/02/10 07:09:12;;;;;;;3.07;2.87;;;19.30;55.00;;;;;;6216087;23;20412;-83
2023/02/10 07:11:39;;;;;;;5.40;3.23;;;19.30;54.90;;;;;;6216216;23;20447;-83
2023/02/10 07:14:05;;;;;;;2.73;2.53;;;19.30;54.90;;;;;;6217994;23;20406;-88
2023/02/10 07:16:33;;;;;;;2.53;2.33;;;19.30;54.90;;;;;;6217604;23;20401;-83
2023/02/10 07:19:00;;;;;;;2.53;2.33;;;19.30;54.90;;;;;;6217958;23;20406;-85
2023/02/10 07:21:28;;;;;;;2.90;2.70;;;19.30;54.80;;;;;;6218215;23;20495;-86
2023/02/10 07:23:55;;;;;;;2.47;2.27;;;19.20;54.70;;;;;;6217891;23;20405;-86
2023/02/10 07:26:22;;;;;;;2.80;2.57;;;19.30;54.90;;;;;;6217832;23;20404;-86
2023/02/10 07:28:49;;;;;;;2.07;1.87;;;19.30;54.90;;;;;;6217470;23;20901;-87
2023/02/10 07:31:15;;;;;;;2.23;2.03;;;19.30;54.90;;;;;;6217800;23;20440;-86
2023/02/10 07:37:31;;;;;;;2.53;2.33;;;19.30;54.80;;;;;;6228001;23;20408;-87
2023/02/10 07:39:58;;;;;;;2.20;2.10;;;19.20;54.80;;;;;;6217555;23;20434;-86
2023/02/10 07:42:25;;;;;;;2.57;2.37;;;19.20;54.90;;;;;;6217674;23;20409;-87
2023/02/10 07:44:52;;;;;;;3.27;3.03;;;19.20;54.80;;;;;;6217388;23;20881;-87
2023/02/10 07:47:19;;;;;;;2.40;2.20;;;19.20;54.70;;;;;;6217341;23;20897;-87
2023/02/10 07:49:45;;;;;;;2.30;1.93;;;19.20;54.70;;;;;;6217653;23;20398;-87
2023/02/10 07:52:12;;;;;;;3.07;2.87;;;19.30;54.80;;;;;;6217125;23;20441;-87
2023/02/10 07:54:40;;;;;;;2.83;2.63;;;19.40;54.80;;;;;;6217611;23;20406;-87
2023/02/10 07:57:07;;;;;;;2.50;2.30;;;19.40;54.80;;;;;;6217209;23;20413;-87
2023/02/10 07:59:34;;;;;;;2.37;2.17;;;19.30;54.70;;;;;;6217524;23;20402;-87
2023/02/10 08:02:01;;;;;;;2.80;2.60;;;19.50;54.80;;;;;;6217418;23;20406;-82
2023/02/10 08:04:30;;;;;;;2.40;2.20;;;19.30;54.60;;;;;;6217433;23;20409;-83
2023/02/10 08:06:57;;;;;;;2.63;2.43;;;19.30;54.60;;;;;;6217453;23;20402;-88
2023/02/10 08:09:24;;;;;;;2.70;2.37;;;19.30;54.50;;;;;;6217068;23;20406;-83
2023/02/10 08:11:52;;;;;;;2.63;2.43;;;19.50;54.70;;;;;;6216916;23;20441;-83
2023/02/10 08:14:19;;;;;;;2.50;2.33;;;19.30;54.50;;;;;;6216727;23;20406;-84
2023/02/10 08:16:46;;;;;;;2.30;2.10;;;19.40;54.60;;;;;;6217025;23;20412;-83
2023/02/10 08:19:13;;;;;;;2.60;2.40;;;19.40;54.60;;;;;;6216534;23;20398;-83
2023/02/10 08:21:41;;;;;;;2.57;2.37;;;19.40;54.50;;;;;;6217001;23;20399;-86
2023/02/10 08:24:08;;;;;;;2.63;2.43;;;19.60;54.70;;;;;;6217161;23;20402;-86
2023/02/10 08:26:35;;;;;;;2.70;2.40;;;19.40;54.40;;;;;;6217207;23;20429;-86
2023/02/10 08:29:03;;;;;;;2.77;2.57;;;19.60;54.60;;;;;;6217539;23;20481;-86
2023/02/10 08:31:30;;;;;;;2.47;2.30;;;19.50;54.40;;;;;;6217507;23;20462;-84
2023/02/10 08:33:57;;;;;;;2.93;2.50;;;19.50;54.40;;;;;;6217049;23;20405;-84
2023/02/10 08:36:24;;;;;;;2.70;2.50;;;19.50;54.30;;;;;;6217187;23;20406;-87
2023/02/10 08:38:51;;;;;;;2.70;2.50;;;19.50;54.30;;;;;;6216539;23;20520;-85
2023/02/10 08:41:19;;;;;;;3.00;2.80;;;19.50;54.20;;;;;;6216964;23;20406;-85
2023/02/10 08:43:46;;;;;;;4.23;3.13;;;19.60;54.30;;;;;;6216746;23;20394;-85
2023/02/10 08:46:15;;;;;;;3.00;2.80;;;19.80;54.40;;;;;;6216788;23;20398;-88
2023/02/10 08:48:42;;;;;;;3.13;2.93;;;19.60;54.10;;;;;;6217400;23;20420;-93
2023/02/10 08:51:10;;;;;;;3.00;2.80;;;19.70;54.20;;;;;;6216687;23;20874;-86
2023/02/10 08:53:37;;;;;;;3.63;2.37;;;19.60;54.10;;;;;;6216432;23;20402;-86
2023/02/10 08:56:07;;;;;;;2.80;2.60;;;19.90;54.30;;;;;;6216447;23;20402;-86
2023/02/10 08:58:34;;;;;;;2.80;2.60;;;19.60;54.10;;;;;;6216887;23;20726;-86
2023/02/10 09:01:01;;;;;;;2.80;2.40;;;19.60;54.10;;;;;;6216632;23;20398;-86
2023/02/10 09:03:29;;;;;;;3.17;2.83;;;19.60;54.10;;;;;;6216606;23;20406;-93
2023/02/10 09:05:56;;;;;;;2.60;2.40;;;19.60;54.10;;;;;;6216605;23;20448;-90
2023/02/10 09:08:23;;;;;;;2.97;2.77;;;19.60;54.20;;;;;;6216212;23;20485;-87
2023/02/10 09:10:50;;;;;;;3.40;2.37;;;19.70;54.20;;;;;;6216503;23;20495;-86
2023/02/10 09:13:17;;;;;;;5.43;2.30;;;19.60;54.20;;;;;;6216621;23;20445;-94
2023/02/10 09:15:44;;;;;;;3.33;3.03;;;19.60;54.20;;;;;;6217535;23;20765;-86
2023/02/10 09:18:12;;;;;;;4.30;3.10;;;19.60;54.20;;;;;;6216889;23;20807;-88
2023/02/10 09:20:40;;;;;;;6.40;2.80;;;19.50;54.10;;;;;;6217215;23;20886;-87
2023/02/10 09:23:06;;;;;;;3.07;2.60;;;19.50;54.10;;;;;;6216770;23;20727;-94
2023/02/10 09:25:33;;;;;;;2.23;2.13;;;19.70;54.30;;;;;;6216767;23;20402;-92
2023/02/10 09:28:00;;;;;;;3.40;3.10;;;19.60;54.20;;;;;;6216399;23;20493;-87
2023/02/10 09:30:28;;;;;;;3.03;2.70;;;19.60;54.20;;;;;;6216714;23;20796;-86
2023/02/10 09:32:55;;;;;;;5.27;3.03;;;19.60;54.10;;;;;;6216669;23;20448;-95
2023/02/10 09:35:22;;;;;;;2.67;2.47;;;19.90;54.20;;;;;;6217410;23;20486;-86
2023/02/10 09:37:50;;;;;;;2.50;2.30;;;20.00;54.20;;;;;;6216472;23;20452;-86
2023/02/10 09:40:21;;;;;;;3.00;2.80;;;19.80;53.90;;;;;;6216430;23;20396;-87
2023/02/10 09:43:03;;;;;;;3.10;2.80;;;19.90;53.80;;;;;;6216641;23;20396;-86
2023/02/10 09:45:37;;;;;;;2.90;2.70;;;20.00;53.70;;;;;;6216234;23;20865;-88
2023/02/10 09:48:22;;;;;;;3.40;3.10;;;20.00;53.40;;;;;;6216245;23;20385;-86
2023/02/10 09:50:59;;;;;;;2.50;2.30;;;20.10;53.40;;;;;;6216636;23;20396;-94
2023/02/10 09:53:29;;;;;;;2.60;2.40;;;20.30;53.30;;;;;;6216492;23;20433;-86
2023/02/10 09:55:59;;;;;;;2.67;2.47;;;20.60;53.20;;;;;;6216621;23;20709;-94
2023/02/10 09:58:32;;;;;;;3.10;2.80;;;20.80;52.80;;;;;;6216623;23;20731;-86
2023/02/10 10:01:06;;;;;;;2.53;2.33;;;21.00;52.70;;;;;;6216319;23;20446;-86
2023/02/10 10:03:40;;;;;;;3.40;3.00;;;21.30;52.50;;;;;;6216503;23;20426;-83
2023/02/10 10:06:15;;;;;;;2.70;2.50;;;21.60;52.20;;;;;;6216115;23;20393;-91
2023/02/10 10:08:54;;;;;;;2.80;2.50;;;21.80;51.80;;;;;;6217483;23;20449;-83
2023/02/10 10:11:26;;;;;;;3.47;3.27;;;22.10;51.60;;;;;;6216396;23;20398;-83
2023/02/10 10:13:55;;;;;;;3.00;2.80;;;22.40;51.30;;;;;;6216468;23;20386;-83
2023/02/10 10:16:36;;;;;;;3.10;2.80;;;22.80;51.00;;;;;;6216389;23;20407;-83
2023/02/10 10:19:17;;;;;;;2.80;2.60;;;23.00;50.60;;;;;;6216417;23;20398;-92
2023/02/10 10:21:52;;;;;;;3.20;2.90;;;23.30;50.40;;;;;;6217310;23;20419;-92
2023/02/10 10:24:33;;;;;;;2.77;2.57;;;23.50;50.30;;;;;;6216199;23;20386;-92
2023/02/10 10:27:12;;;;;;;2.50;2.30;;;23.50;50.00;;;;;;6216459;23;20390;-86
2023/02/10 10:29:46;;;;;;;3.53;3.23;;;23.60;50.00;;;;;;6215962;23;20908;-83
2023/02/10 10:32:17;;;;;;;2.90;2.70;;;23.70;49.90;;;;;;6216279;23;20430;-94
2023/02/10 10:34:51;;;;;;;2.87;2.67;;;23.90;50.40;;;;;;6216398;23;20392;-86
2023/02/10 10:37:20;;;;;;;2.53;2.33;;;23.90;49.70;;;;;;6216260;23;20426;-83
2023/02/10 10:39:52;;;;;;;3.13;2.93;;;23.80;49.80;;;;;;6216695;23;20437;-84
2023/02/10 10:42:24;;;;;;;2.93;2.63;;;23.80;49.90;;;;;;6215883;23;20900;-84
2023/02/10 10:44:54;;;;;;;3.40;3.13;;;23.80;50.00;;;;;;6215899;23;20395;-83
2023/02/10 10:47:29;;;;;;;3.00;2.80;;;23.70;50.10;;;;;;6217118;23;20406;-83
2023/02/10 10:49:56;;;;;;;3.13;2.90;;;23.40;50.30;;;;;;6218317;23;20469;-84
2023/02/10 10:52:29;;;;;;;3.33;3.03;;;23.20;50.70;;;;;;6217833;23;20451;-84
2023/02/10 10:54:57;;;;;;;2.90;2.70;;;23.00;50.90;;;;;;6218288;23;20393;-84
2023/02/10 10:57:26;;;;;;;2.83;2.43;;;22.90;51.20;;;;;;6217879;23;20409;-81
2023/02/10 10:59:58;;;;;;;3.20;3.00;;;22.80;51.50;;;;;;6218290;23;20421;-81
2023/02/10 11:02:25;;;;;;;25.00;12.67;;;22.50;51.70;;;;;;6218170;23;20394;-94
2023/02/10 11:05:02;;;;;;;11.87;6.60;;;22.20;50.70;;;;;;6218182;23;20483;-91
2023/02/10 11:07:31;;;;;;;7.10;6.20;;;22.00;51.10;;;;;;6218205;23;20413;-91
2023/02/10 11:10:01;;;;;;;8.40;5.27;;;21.90;51.40;;;;;;6218620;23;20494;-96
2023/02/10 11:12:32;;;;;;;5.83;4.27;;;21.90;51.60;;;;;;6219581;23;20504;-96
2023/02/10 11:15:00;;;;;;;5.63;4.07;;;21.80;51.50;;;;;;6218327;23;20765;-91
2023/02/10 11:17:35;;;;;;;4.40;3.60;;;21.80;51.60;;;;;;6218024;23;20406;-83
2023/02/10 11:20:05;;;;;;;6.40;3.97;;;21.80;51.80;;;;;;6218982;23;20386;-83
2023/02/10 11:22:32;;;;;;;6.47;3.70;;;21.70;52.00;;;;;;6218145;23;20397;-91
2023/02/10 11:25:05;;;;;;;6.83;3.47;;;21.70;52.10;;;;;;6217516;23;20919;-83
2023/02/10 11:27:32;;;;;;;5.90;4.00;;;21.60;52.10;;;;;;6217870;23;20401;-84
2023/02/10 11:30:02;;;;;;;9.03;3.20;;;21.60;52.10;;;;;;6217830;23;20904;-84
2023/02/10 11:32:32;;;;;;;8.13;5.07;;;21.60;52.30;;;;;;6217760;23;20443;-83
2023/02/10 11:35:02;;;;;;;5.20;4.20;;;21.60;52.10;;;;;;6217693;23;20402;-83
2023/02/10 11:37:30;;;;;;;7.00;4.00;;;21.50;52.30;;;;;;6217835;23;20393;-83
2023/02/10 11:40:00;;;;;;;9.77;3.83;;;21.40;52.50;;;;;;6217550;23;20441;-83
2023/02/10 11:42:32;;;;;;;6.80;3.53;;;21.40;52.60;;;;;;6217529;23;20714;-92
2023/02/10 11:45:00;;;;;;;6.90;4.00;;;21.30;52.70;;;;;;6217389;23;20398;-84
2023/02/10 11:47:29;;;;;;;5.40;4.00;;;21.30;53.40;;;;;;6217348;23;20413;-83
2023/02/10 11:49:56;;;;;;;4.30;3.07;;;21.20;52.80;;;;;;6217310;23;20416;-83
2023/02/10 11:52:27;;;;;;;4.50;4.10;;;21.20;53.00;;;;;;6217274;23;20446;-84
2023/02/10 11:54:54;;;;;;;17.37;12.13;;;21.20;52.80;;;;;;6217402;23;20776;-84
2023/02/10 12:00:26;;;;;;;9.03;5.23;;;21.10;52.90;;;;;;6217444;23;20375;-83
2023/02/10 12:03:20;;;;;;;7.83;6.23;;;21.00;52.90;;;;;;6217640;23;20885;-84
2023/02/10 12:05:56;;;;;;;6.87;4.67;;;21.10;52.80;;;;;;6217121;23;20406;-83
2023/02/10 12:08:30;;;;;;;5.53;4.30;;;21.00;52.90;;;;;;6217563;23;20438;-83
2023/02/10 12:11:04;;;;;;;8.70;5.30;;;21.00;53.00;;;;;;6217541;23;20390;-83
2023/02/10 12:13:42;;;;;;;7.70;5.27;;;21.00;52.50;;;;;;6217284;23;20441;-83
2023/02/10 12:16:18;;;;;;;7.03;4.50;;;21.00;52.90;;;;;;6217142;23;20388;-83
2023/02/10 12:18:57;;;;;;;4.50;4.10;;;21.00;52.90;;;;;;6217553;23;20382;-83
2023/02/10 12:21:43;;;;;;;5.10;4.20;;;21.00;53.00;;;;;;6217158;23;20481;-83
2023/02/10 12:24:23;;;;;;;4.17;3.77;;;21.00;53.00;;;;;;6218434;23;20382;-85
2023/02/10 12:26:55;;;;;;;11.73;4.90;;;21.20;53.30;;;;;;6217367;23;20388;-84
2023/02/10 12:29:44;;;;;;;7.70;4.43;;;21.20;53.90;;;;;;6218065;23;20391;-83
2023/02/10 12:32:20;;;;;;;6.90;3.80;;;21.00;53.30;;;;;;6216749;23;20402;-83
2023/02/10 12:35:05;;;;;;;9.73;4.50;;;21.00;53.30;;;;;;6216918;23;20873;-84
2023/02/10 12:37:39;;;;;;;4.63;3.87;;;21.00;53.40;;;;;;6216842;23;20390;-84
2023/02/10 12:40:25;;;;;;;4.33;3.50;;;21.00;53.60;;;;;;6187210;23;20869;-84
2023/02/10 12:43:02;;;;;;;6.87;3.97;;;21.00;53.70;;;;;;6187008;23;20395;-84
2023/02/10 12:45:38;;;;;;;8.23;3.30;;;21.00;53.70;;;;;;6186715;23;20387;-84
2023/02/10 12:48:17;;;;;;;7.00;4.67;;;21.00;53.70;;;;;;6187370;23;20382;-84
2023/02/10 12:51:00;;;;;;;5.53;3.50;;;21.00;53.80;;;;;;6187060;23;20383;-91
2023/02/10 12:53:31;;;;;;;6.27;3.77;;;21.00;53.90;;;;;;6186808;23;20439;-83
2023/02/10 12:56:01;;;;;;;5.43;3.90;;;21.00;53.90;;;;;;6186783;23;20399;-83
2023/02/10 12:58:33;;;;;;;4.53;3.23;;;21.00;54.00;;;;;;6186896;23;20383;-83
2023/02/10 13:01:11;;;;;;;6.33;3.77;;;21.00;54.00;;;;;;6186698;23;20402;-83
2023/02/10 13:03:42;;;;;;;3.97;3.60;;;21.00;54.00;;;;;;6186946;23;20387;-83